createdAt,value
2017-08-17T00:00:09.659Z,31
2017-08-17T00:02:07.648Z,31
2017-08-17T00:04:15.026Z,31
2017-08-17T00:06:07.002Z,31
2017-08-17T00:08:06.741Z,31
2017-08-17T00:10:06.448Z,31
2017-08-17T00:12:07.236Z,31
2017-08-17T00:14:09.561Z,30
2017-08-17T00:16:07.263Z,30
2017-08-17T00:18:07.191Z,30
2017-08-17T00:20:07.114Z,30
2017-08-17T00:22:09.397Z,30
2017-08-17T00:24:14.748Z,30
2017-08-17T00:26:06.811Z,30
2017-08-17T00:28:06.587Z,30
2017-08-17T00:30:09.877Z,30
2017-08-17T00:32:06.802Z,30
2017-08-17T00:34:06.559Z,30
2017-08-17T00:36:14.901Z,30
2017-08-17T00:38:06.781Z,30
2017-08-17T00:40:06.547Z,30
2017-08-17T00:42:07.270Z,30
2017-08-17T00:44:17.123Z,30
2017-08-17T00:46:06.847Z,30
2017-08-17T00:48:06.560Z,30
2017-08-17T00:50:07.402Z,30
2017-08-17T00:52:14.681Z,30
2017-08-17T00:54:10.154Z,30
2017-08-17T00:56:09.472Z,30
2017-08-17T00:58:14.820Z,30
2017-08-17T01:00:06.532Z,30
2017-08-17T01:02:07.352Z,30
2017-08-17T01:04:07.085Z,30
2017-08-17T01:06:07.065Z,30
2017-08-17T01:08:10.300Z,30
2017-08-17T01:10:09.622Z,30
2017-08-17T01:12:09.888Z,30
2017-08-17T01:14:06.984Z,30
2017-08-17T01:16:06.678Z,30
2017-08-17T01:18:06.558Z,30
2017-08-17T01:20:07.461Z,30
2017-08-17T01:22:07.185Z,30
2017-08-17T01:24:06.908Z,30
2017-08-17T01:26:06.676Z,30
2017-08-17T01:28:12.407Z,30
2017-08-17T01:30:07.214Z,30
2017-08-17T01:32:07.276Z,30
2017-08-17T01:34:07.024Z,30
2017-08-17T01:36:06.745Z,30
2017-08-17T01:38:06.714Z,30
2017-08-17T01:40:06.438Z,30
2017-08-17T01:42:09.737Z,30
2017-08-17T01:44:06.468Z,30
2017-08-17T01:46:10.141Z,30
2017-08-17T01:48:06.830Z,30
2017-08-17T01:50:09.120Z,30
2017-08-17T01:52:06.796Z,30
2017-08-17T01:54:09.018Z,30
2017-08-17T01:56:07.095Z,30
2017-08-17T01:58:09.352Z,30
2017-08-17T02:00:14.645Z,30
2017-08-17T02:02:07.582Z,30
2017-08-17T02:04:07.284Z,30
2017-08-17T02:06:09.538Z,30
2017-08-17T02:08:12.667Z,30
2017-08-17T02:10:09.127Z,29
2017-08-17T02:12:06.813Z,25
2017-08-17T02:14:06.716Z,30
2017-08-17T02:16:08.911Z,30
2017-08-17T02:18:07.981Z,29
2017-08-17T02:20:09.250Z,30
2017-08-17T02:22:06.938Z,28
2017-08-17T02:24:06.692Z,29
2017-08-17T02:26:06.566Z,25
2017-08-17T02:28:30.059Z,26
2017-08-17T02:30:06.894Z,26
2017-08-17T02:32:06.767Z,28
2017-08-17T02:34:09.025Z,28
2017-08-17T02:36:09.239Z,28
2017-08-17T02:38:06.966Z,28
2017-08-17T02:40:06.650Z,28
2017-08-17T02:42:07.355Z,26
2017-08-17T02:44:07.224Z,26
2017-08-17T02:46:23.135Z,26
2017-08-17T02:48:09.357Z,26
2017-08-17T02:50:12.418Z,26
2017-08-17T02:52:09.716Z,26
2017-08-17T02:54:11.476Z,26
2017-08-17T02:56:07.516Z,26
2017-08-17T02:58:09.720Z,26
2017-08-17T03:00:06.404Z,25
2017-08-17T03:02:09.749Z,26
2017-08-17T03:04:11.571Z,26
2017-08-17T03:06:07.458Z,26
2017-08-17T03:08:07.240Z,25
2017-08-17T03:10:07.051Z,26
2017-08-17T03:12:09.387Z,25
2017-08-17T03:14:07.245Z,25
2017-08-17T03:16:17.228Z,25
2017-08-17T03:18:07.197Z,25
2017-08-17T03:20:09.594Z,25
2017-08-17T03:22:10.010Z,25
2017-08-17T03:24:11.916Z,25
2017-08-17T03:26:06.651Z,25
2017-08-17T03:28:09.927Z,25
2017-08-17T03:30:06.666Z,25
2017-08-17T03:32:12.600Z,25
2017-08-17T03:34:07.283Z,25
2017-08-17T03:36:09.576Z,25
2017-08-17T03:38:07.345Z,25
2017-08-17T03:40:09.720Z,25
2017-08-17T03:42:09.007Z,25
2017-08-17T03:44:09.330Z,25
2017-08-17T03:46:07.004Z,25
2017-08-17T03:48:11.810Z,25
2017-08-17T03:50:06.659Z,24
2017-08-17T03:52:07.346Z,25
2017-08-17T03:54:07.132Z,24
2017-08-17T03:56:12.007Z,25
2017-08-17T03:58:06.755Z,25
2017-08-17T04:00:06.509Z,25
2017-08-17T04:02:12.443Z,24
2017-08-17T04:04:07.120Z,24
2017-08-17T04:06:06.876Z,24
2017-08-17T04:08:06.800Z,25
2017-08-17T04:10:06.617Z,25
2017-08-17T04:12:12.587Z,23
2017-08-17T04:14:07.400Z,23
2017-08-17T04:16:12.176Z,23
2017-08-17T04:18:07.194Z,23
2017-08-17T04:20:07.099Z,24
2017-08-17T04:22:14.435Z,23
2017-08-17T04:24:07.129Z,23
2017-08-17T04:26:12.098Z,23
2017-08-17T04:28:09.330Z,22
2017-08-17T04:30:07.022Z,23
2017-08-17T04:32:19.360Z,23
2017-08-17T04:34:07.071Z,23
2017-08-17T04:36:09.320Z,23
2017-08-17T04:38:07.040Z,22
2017-08-17T04:40:14.412Z,22
2017-08-17T04:42:09.707Z,23
2017-08-17T04:44:06.453Z,22
2017-08-17T04:46:13.785Z,22
2017-08-17T04:48:07.265Z,22
2017-08-17T04:50:07.190Z,23
2017-08-17T04:52:06.932Z,22
2017-08-17T04:54:11.655Z,22
2017-08-17T04:56:20.227Z,21
2017-08-17T04:58:07.237Z,21
2017-08-17T05:00:12.048Z,21
2017-08-17T05:02:07.113Z,21
2017-08-17T05:04:06.830Z,21
2017-08-17T05:06:14.154Z,21
2017-08-17T05:08:06.849Z,20
2017-08-17T05:10:06.614Z,21
2017-08-17T05:12:07.310Z,20
2017-08-17T05:14:07.158Z,21
2017-08-17T05:16:06.875Z,21
2017-08-17T05:18:14.409Z,20
2017-08-17T05:20:07.209Z,19
2017-08-17T05:22:06.892Z,20
2017-08-17T05:24:14.191Z,20
2017-08-17T05:26:07.067Z,20
2017-08-17T05:28:06.802Z,20
2017-08-17T05:30:11.593Z,20
2017-08-17T05:32:09.944Z,20
2017-08-17T05:34:09.216Z,20
2017-08-17T05:36:07.110Z,19
2017-08-17T05:38:06.890Z,19
2017-08-17T05:40:11.685Z,19
2017-08-17T05:42:12.437Z,19
2017-08-17T05:44:07.165Z,19
2017-08-17T05:46:07.096Z,19
2017-08-17T05:48:06.823Z,19
2017-08-17T05:50:06.636Z,19
2017-08-17T05:52:07.317Z,19
2017-08-17T05:54:09.552Z,19
2017-08-17T05:56:07.290Z,19
2017-08-17T05:58:09.569Z,19
2017-08-17T06:00:09.869Z,19
2017-08-17T06:02:11.656Z,19
2017-08-17T06:04:09.873Z,19
2017-08-17T06:06:09.249Z,19
2017-08-17T06:08:09.630Z,19
2017-08-17T06:10:09.897Z,19
2017-08-17T06:12:11.683Z,19
2017-08-17T06:14:15.138Z,19
2017-08-17T06:16:09.426Z,19
2017-08-17T06:18:17.637Z,19
2017-08-17T06:20:07.442Z,19
2017-08-17T06:22:07.127Z,19
2017-08-17T06:24:14.480Z,19
2017-08-17T06:26:15.025Z,19
2017-08-17T06:28:09.216Z,19
2017-08-17T06:30:06.888Z,19
2017-08-17T06:32:06.708Z,19
2017-08-17T06:34:06.570Z,19
2017-08-17T06:36:07.283Z,19
2017-08-17T06:38:12.211Z,19
2017-08-17T06:40:06.944Z,19
2017-08-17T06:42:09.200Z,19
2017-08-17T06:44:19.771Z,19
2017-08-17T06:46:08.940Z,19
2017-08-17T06:48:09.545Z,19
2017-08-17T06:50:07.384Z,19
2017-08-17T06:52:09.640Z,19
2017-08-17T06:54:12.384Z,19
2017-08-17T06:56:07.294Z,19
2017-08-17T06:58:09.783Z,19
2017-08-17T07:00:07.967Z,19
2017-08-17T07:02:06.753Z,19
2017-08-17T07:04:09.063Z,19
2017-08-17T07:06:09.355Z,19
2017-08-17T07:08:07.086Z,19
2017-08-17T07:10:09.316Z,19
2017-08-17T07:12:09.617Z,20
2017-08-17T07:14:09.859Z,19
2017-08-17T07:16:11.635Z,20
2017-08-17T07:18:06.500Z,20
2017-08-17T07:20:07.303Z,20
2017-08-17T07:22:07.182Z,20
2017-08-17T07:24:12.053Z,20
2017-08-17T07:26:06.978Z,20
2017-08-17T07:28:06.695Z,21
2017-08-17T07:30:11.458Z,21
2017-08-17T07:32:07.160Z,20
2017-08-17T07:34:06.847Z,21
2017-08-17T07:36:09.063Z,22
2017-08-17T07:38:06.915Z,21
2017-08-17T07:40:09.121Z,22
2017-08-17T07:42:09.409Z,22
2017-08-17T07:44:22.661Z,22
2017-08-17T07:46:07.336Z,22
2017-08-17T07:48:07.040Z,22
2017-08-17T07:50:12.137Z,23
2017-08-17T07:52:06.827Z,23
2017-08-17T07:54:09.390Z,25
2017-08-17T07:56:09.895Z,25
2017-08-17T07:58:11.683Z,25
2017-08-17T08:00:11.466Z,25
2017-08-17T08:02:07.167Z,25
2017-08-17T08:04:06.889Z,25
2017-08-17T08:06:06.591Z,25
2017-08-17T08:08:14.997Z,25
2017-08-17T08:10:06.715Z,25
2017-08-17T08:12:06.433Z,25
2017-08-17T08:14:07.472Z,25
2017-08-17T08:16:07.208Z,26
2017-08-17T08:18:09.689Z,26
2017-08-17T08:20:09.093Z,26
2017-08-17T08:22:06.809Z,26
2017-08-17T08:24:06.457Z,26
2017-08-17T08:26:09.668Z,28
2017-08-17T08:28:07.342Z,28
2017-08-17T08:30:14.625Z,28
2017-08-17T08:32:10.040Z,26
2017-08-17T08:34:06.744Z,26
2017-08-17T08:36:08.410Z,26
2017-08-17T08:38:07.894Z,25
2017-08-17T08:40:10.127Z,25
2017-08-17T08:42:09.552Z,25
2017-08-17T08:44:10.380Z,25
2017-08-17T08:46:09.642Z,25
2017-08-17T08:48:07.341Z,23
2017-08-17T08:50:12.111Z,24
2017-08-17T08:52:07.269Z,24
2017-08-17T08:54:06.976Z,23
2017-08-17T08:56:10.349Z,23
2017-08-17T08:58:07.398Z,22
2017-08-17T09:00:07.107Z,22
2017-08-17T09:02:07.188Z,22
2017-08-17T09:04:07.964Z,22
2017-08-17T09:06:07.689Z,22
2017-08-17T09:08:14.067Z,22
2017-08-17T09:10:11.909Z,22
2017-08-17T09:12:11.899Z,22
2017-08-17T09:14:09.269Z,22
2017-08-17T09:16:10.536Z,21
2017-08-17T09:18:07.435Z,21
2017-08-17T09:20:14.649Z,20
2017-08-17T09:22:15.962Z,20
2017-08-17T09:24:09.703Z,20
2017-08-17T09:26:19.392Z,20
2017-08-17T09:28:13.491Z,20
2017-08-17T09:30:15.171Z,20
2017-08-17T09:32:07.122Z,20
2017-08-17T09:34:19.553Z,20
2017-08-17T09:36:07.758Z,19
2017-08-17T09:38:12.568Z,20
2017-08-17T09:40:07.452Z,20
2017-08-17T09:42:12.423Z,20
2017-08-17T09:44:15.016Z,20
2017-08-17T09:46:15.274Z,20
2017-08-17T09:48:06.996Z,19
2017-08-17T09:50:07.512Z,19
2017-08-17T09:52:07.243Z,19
2017-08-17T09:54:09.458Z,19
2017-08-17T09:56:14.899Z,19
2017-08-17T09:58:06.651Z,19
2017-08-17T10:00:07.575Z,19
2017-08-17T10:02:07.402Z,19
2017-08-17T10:04:07.136Z,20
2017-08-17T10:06:06.914Z,19
2017-08-17T10:08:14.230Z,19
2017-08-17T10:10:06.981Z,19
2017-08-17T10:12:06.726Z,19
2017-08-17T10:14:09.849Z,19
2017-08-17T10:16:06.518Z,19
2017-08-17T10:18:09.159Z,19
2017-08-17T10:20:09.574Z,19
2017-08-17T10:22:07.319Z,19
2017-08-17T10:24:09.550Z,19
2017-08-17T10:26:12.473Z,19
2017-08-17T10:28:07.190Z,19
2017-08-17T10:30:06.904Z,19
2017-08-17T10:32:06.747Z,19
2017-08-17T10:34:11.869Z,19
2017-08-17T10:36:06.591Z,19
2017-08-17T10:38:07.540Z,19
2017-08-17T10:40:07.210Z,19
2017-08-17T10:42:06.926Z,19
2017-08-17T10:44:18.053Z,19
2017-08-17T10:46:07.733Z,19
2017-08-17T10:48:06.447Z,19
2017-08-17T10:50:10.038Z,19
2017-08-17T10:52:06.735Z,19
2017-08-17T10:54:06.493Z,19
2017-08-17T10:56:07.175Z,19
2017-08-17T10:58:06.932Z,19
2017-08-17T11:00:14.268Z,19
2017-08-17T11:02:09.498Z,19
2017-08-17T11:04:07.219Z,19
2017-08-17T11:06:09.606Z,19
2017-08-17T11:08:07.370Z,19
2017-08-17T11:10:07.084Z,19
2017-08-17T11:12:07.132Z,19
2017-08-17T11:14:06.896Z,19
2017-08-17T11:16:11.724Z,19
2017-08-17T11:18:06.808Z,19
2017-08-17T11:20:06.521Z,19
2017-08-17T11:22:07.772Z,19
2017-08-17T11:24:09.402Z,19
2017-08-17T11:26:07.178Z,19
2017-08-17T11:28:06.891Z,19
2017-08-17T11:30:06.790Z,19
2017-08-17T11:32:09.006Z,19
2017-08-17T11:34:06.726Z,19
2017-08-17T11:36:06.418Z,19
2017-08-17T11:38:07.644Z,19
2017-08-17T11:40:07.371Z,19
2017-08-17T11:42:12.456Z,19
2017-08-17T11:44:09.736Z,19
2017-08-17T11:46:08.997Z,19
2017-08-17T11:48:06.892Z,19
2017-08-17T11:50:06.896Z,19
2017-08-17T11:52:06.623Z,20
2017-08-17T11:54:07.617Z,20
2017-08-17T11:56:08.358Z,20
2017-08-17T11:58:19.753Z,20
2017-08-17T12:00:11.664Z,20
2017-08-17T12:02:07.377Z,20
2017-08-17T12:04:09.627Z,20
2017-08-17T12:06:07.864Z,20
2017-08-17T12:08:06.598Z,21
2017-08-17T12:10:07.307Z,22
2017-08-17T12:12:07.177Z,22
2017-08-17T12:14:06.892Z,22
2017-08-17T12:16:19.252Z,22
2017-08-17T12:18:09.714Z,22
2017-08-17T12:20:11.768Z,23
2017-08-17T12:22:06.839Z,22
2017-08-17T12:24:16.965Z,23
2017-08-17T12:26:14.683Z,25
2017-08-17T12:28:06.340Z,25
2017-08-17T12:30:07.156Z,25
2017-08-17T12:32:08.113Z,25
2017-08-17T12:34:06.789Z,26
2017-08-17T12:36:11.315Z,28
2017-08-17T12:38:07.251Z,28
2017-08-17T12:40:06.962Z,28
2017-08-17T12:42:06.805Z,28
2017-08-17T12:44:09.041Z,26
2017-08-17T12:46:11.816Z,28
2017-08-17T12:48:06.890Z,26
2017-08-17T12:50:06.584Z,28
2017-08-17T12:52:17.375Z,28
2017-08-17T12:54:09.992Z,26
2017-08-17T12:56:06.762Z,26
2017-08-17T12:58:09.017Z,29
2017-08-17T13:00:07.146Z,30
2017-08-17T13:02:06.899Z,30
2017-08-17T13:04:06.556Z,30
2017-08-17T13:06:09.794Z,30
2017-08-17T13:08:14.134Z,26
2017-08-17T13:10:06.881Z,26
2017-08-17T13:12:11.669Z,26
2017-08-17T13:14:07.530Z,25
2017-08-17T13:16:07.236Z,26
2017-08-17T13:18:07.310Z,26
2017-08-17T13:20:07.044Z,25
2017-08-17T13:22:09.215Z,25
2017-08-17T13:24:09.562Z,26
2017-08-17T13:26:11.954Z,26
2017-08-17T13:28:06.641Z,26
2017-08-17T13:30:07.681Z,26
2017-08-17T13:32:07.472Z,25
2017-08-17T13:34:08.398Z,25
2017-08-17T13:36:07.465Z,25
2017-08-17T13:38:08.056Z,25
2017-08-17T13:40:07.642Z,25
2017-08-17T13:42:10.087Z,25
2017-08-17T13:44:14.487Z,25
2017-08-17T13:46:07.333Z,25
2017-08-17T13:48:09.679Z,25
2017-08-17T13:50:16.067Z,25
2017-08-17T13:52:06.781Z,25
2017-08-17T13:54:06.567Z,25
2017-08-17T13:56:07.266Z,25
2017-08-17T13:58:07.055Z,25
2017-08-17T14:00:06.973Z,25
2017-08-17T14:02:07.226Z,25
2017-08-17T14:04:12.010Z,25
2017-08-17T14:06:07.860Z,25
2017-08-17T14:08:06.557Z,26
2017-08-17T14:10:07.308Z,26
2017-08-17T14:12:08.254Z,26
2017-08-17T14:14:07.016Z,26
2017-08-17T14:16:07.589Z,26
2017-08-17T14:18:12.266Z,26
2017-08-17T14:20:07.388Z,26
2017-08-17T14:22:09.958Z,28
2017-08-17T14:24:07.009Z,26
2017-08-17T14:26:06.907Z,28
2017-08-17T14:28:14.182Z,30
2017-08-17T14:30:08.813Z,30
2017-08-17T14:32:09.063Z,30
2017-08-17T14:34:06.847Z,28
2017-08-17T14:36:08.232Z,30
2017-08-17T14:38:07.921Z,30
2017-08-17T14:40:06.605Z,30
2017-08-17T14:42:07.333Z,30
2017-08-17T14:44:09.754Z,30
2017-08-17T14:46:06.693Z,30
2017-08-17T14:48:06.486Z,30
2017-08-17T14:50:09.834Z,30
2017-08-17T14:52:06.777Z,30
2017-08-17T14:54:10.109Z,30
2017-08-17T14:56:06.792Z,30
2017-08-17T14:58:06.514Z,30
2017-08-17T15:00:13.415Z,30
2017-08-17T15:02:07.392Z,30
2017-08-17T15:04:07.141Z,30
2017-08-17T15:06:15.078Z,30
2017-08-17T15:08:10.355Z,30
2017-08-17T15:10:07.111Z,30
2017-08-17T15:12:10.466Z,30
2017-08-17T15:14:07.431Z,30
2017-08-17T15:16:08.526Z,30
2017-08-17T15:18:08.712Z,30
2017-08-17T15:20:07.164Z,30
2017-08-17T15:22:07.048Z,30
2017-08-17T15:24:07.051Z,30
2017-08-17T15:26:09.261Z,30
2017-08-17T15:28:06.984Z,30
2017-08-17T15:30:09.570Z,30
2017-08-17T15:32:12.576Z,30
2017-08-17T15:34:14.041Z,30
2017-08-17T15:36:09.452Z,30
2017-08-17T15:38:08.638Z,30
2017-08-17T15:40:08.415Z,30
2017-08-17T15:42:09.928Z,30
2017-08-17T15:44:11.926Z,30
2017-08-17T15:46:06.649Z,30
2017-08-17T15:48:08.011Z,30
2017-08-17T15:50:19.392Z,30
2017-08-17T15:52:07.192Z,30
2017-08-17T15:54:07.460Z,30
2017-08-17T15:56:07.133Z,30
2017-08-17T15:58:07.262Z,30
2017-08-17T16:00:07.077Z,30
2017-08-17T16:02:07.456Z,30
2017-08-17T16:04:07.224Z,30
2017-08-17T16:06:06.964Z,30
2017-08-17T16:08:15.557Z,30
2017-08-17T16:10:08.781Z,30
2017-08-17T16:12:11.929Z,30
2017-08-17T16:14:06.725Z,30
2017-08-17T16:16:08.636Z,30
2017-08-17T16:18:09.329Z,30
2017-08-17T16:20:11.269Z,30
2017-08-17T16:22:10.530Z,30
2017-08-17T16:24:11.018Z,30
2017-08-17T16:26:06.860Z,30
2017-08-17T16:28:06.627Z,30
2017-08-17T16:30:15.014Z,30
2017-08-17T16:32:07.077Z,30
2017-08-17T16:34:07.119Z,30
2017-08-17T16:36:06.841Z,30
2017-08-17T16:38:06.787Z,30
2017-08-17T16:40:06.526Z,30
2017-08-17T16:42:07.286Z,30
2017-08-17T16:44:06.933Z,30
2017-08-17T16:46:06.686Z,30
2017-08-17T16:48:06.386Z,30
2017-08-17T16:50:07.063Z,30
2017-08-17T16:52:06.993Z,30
2017-08-17T16:54:09.704Z,30
2017-08-17T16:56:14.261Z,30
2017-08-17T16:58:07.034Z,30
2017-08-17T17:00:11.785Z,30
2017-08-17T17:02:09.042Z,30
2017-08-17T17:04:07.833Z,30
2017-08-17T17:06:06.519Z,30
2017-08-17T17:08:07.359Z,30
2017-08-17T17:10:07.246Z,30
2017-08-17T17:12:12.300Z,30
2017-08-17T17:14:19.659Z,30
2017-08-17T17:16:07.713Z,30
2017-08-17T17:18:06.591Z,30
2017-08-17T17:20:07.272Z,30
2017-08-17T17:22:07.103Z,30
2017-08-17T17:24:06.820Z,30
2017-08-17T17:26:09.261Z,30
2017-08-17T17:28:07.089Z,30
2017-08-17T17:30:11.822Z,30
2017-08-17T17:32:06.647Z,30
2017-08-17T17:34:07.447Z,30
2017-08-17T17:36:07.122Z,30
2017-08-17T17:38:14.401Z,30
2017-08-17T17:40:07.349Z,30
2017-08-17T17:42:07.069Z,30
2017-08-17T17:44:06.968Z,30
2017-08-17T17:46:06.799Z,30
2017-08-17T17:48:06.511Z,30
2017-08-17T17:50:12.302Z,30
2017-08-17T17:52:09.750Z,30
2017-08-17T17:54:11.494Z,30
2017-08-17T17:56:07.138Z,30
2017-08-17T17:58:09.385Z,30
2017-08-17T18:00:07.468Z,30
2017-08-17T18:02:07.235Z,30
2017-08-17T18:04:14.703Z,30
2017-08-17T18:06:06.414Z,30
2017-08-17T18:08:07.109Z,30
2017-08-17T18:10:06.925Z,30
2017-08-17T18:12:09.127Z,30
2017-08-17T18:14:07.134Z,30
2017-08-17T18:16:07.167Z,30
2017-08-17T18:18:14.690Z,30
2017-08-17T18:20:06.362Z,30
2017-08-17T18:22:07.140Z,30
2017-08-17T18:24:06.837Z,30
2017-08-17T18:26:06.600Z,30
2017-08-17T18:28:07.353Z,30
2017-08-17T18:30:07.141Z,30
2017-08-17T18:32:09.455Z,30
2017-08-17T18:34:07.233Z,30
2017-08-17T18:36:07.257Z,30
2017-08-17T18:38:07.003Z,30
2017-08-17T18:40:06.775Z,30
2017-08-17T18:42:11.562Z,30
2017-08-17T18:44:07.298Z,30
2017-08-17T18:46:07.090Z,30
2017-08-17T18:48:06.904Z,30
2017-08-17T18:50:06.643Z,30
2017-08-17T18:52:07.492Z,30
2017-08-17T18:54:07.480Z,30
2017-08-17T18:56:07.201Z,30
2017-08-17T18:58:13.417Z,30
2017-08-17T19:00:07.178Z,30
2017-08-17T19:02:08.082Z,30
2017-08-17T19:04:12.430Z,30
2017-08-17T19:06:07.193Z,30
2017-08-17T19:08:06.935Z,30
2017-08-17T19:10:07.012Z,30
2017-08-17T19:12:06.741Z,30
2017-08-17T19:14:06.453Z,30
2017-08-17T19:16:07.710Z,30
2017-08-17T19:18:09.239Z,30
2017-08-17T19:20:07.000Z,30
2017-08-17T19:22:06.871Z,30
2017-08-17T19:24:06.608Z,30
2017-08-17T19:26:15.028Z,30
2017-08-17T19:28:09.351Z,30
2017-08-17T19:30:07.083Z,30
2017-08-17T19:32:06.908Z,30
2017-08-17T19:34:16.332Z,30
2017-08-17T19:36:14.798Z,30
2017-08-17T19:38:09.049Z,31
2017-08-17T19:40:06.792Z,30
2017-08-17T19:42:06.505Z,31
2017-08-17T19:44:07.445Z,31
2017-08-17T19:46:08.242Z,31
2017-08-17T19:48:06.945Z,30
2017-08-17T19:50:06.991Z,31
2017-08-17T19:52:06.846Z,31
2017-08-17T19:54:09.014Z,31
2017-08-17T19:56:06.746Z,31
2017-08-17T19:58:11.547Z,31
2017-08-17T20:00:10.017Z,31
2017-08-17T20:02:09.531Z,31
2017-08-17T20:04:07.252Z,31
2017-08-17T20:06:09.513Z,31
2017-08-17T20:08:10.951Z,31
2017-08-17T20:10:17.109Z,31
2017-08-17T20:12:06.766Z,31
2017-08-17T20:14:08.986Z,31
2017-08-17T20:16:09.364Z,31
2017-08-17T20:18:10.085Z,31
2017-08-17T20:20:11.874Z,31
2017-08-17T20:22:06.599Z,31
2017-08-17T20:24:07.400Z,31
2017-08-17T20:26:07.168Z,31
2017-08-17T20:28:14.469Z,31
2017-08-17T20:30:07.188Z,31
2017-08-17T20:32:07.008Z,31
2017-08-17T20:34:16.916Z,31
2017-08-17T20:36:09.172Z,31
2017-08-17T20:38:11.895Z,31
2017-08-17T20:40:06.610Z,31
2017-08-17T20:42:07.374Z,31
2017-08-17T20:44:07.133Z,31
2017-08-17T20:46:11.870Z,31
2017-08-17T20:48:06.786Z,31
2017-08-17T20:50:06.643Z,31
2017-08-17T20:52:09.920Z,31
2017-08-17T20:54:09.246Z,31
2017-08-17T20:56:12.423Z,31
2017-08-17T20:58:07.313Z,31
2017-08-17T21:00:07.081Z,31
2017-08-17T21:02:09.521Z,30
2017-08-17T21:04:09.733Z,31
2017-08-17T21:06:06.423Z,31
2017-08-17T21:08:09.911Z,31
2017-08-17T21:10:09.194Z,31
2017-08-17T21:12:07.118Z,31
2017-08-17T21:14:06.999Z,31
2017-08-17T21:16:06.739Z,31
2017-08-17T21:18:19.369Z,31
2017-08-17T21:20:07.247Z,31
2017-08-17T21:22:06.952Z,31
2017-08-17T21:24:06.628Z,31
2017-08-17T21:26:07.898Z,31
2017-08-17T21:28:11.884Z,31
2017-08-17T21:30:06.695Z,31
2017-08-17T21:32:06.416Z,31
2017-08-17T21:34:07.150Z,31
2017-08-17T21:36:09.480Z,31
2017-08-17T21:38:07.231Z,31
2017-08-17T21:40:12.042Z,31
2017-08-17T21:42:06.794Z,31
2017-08-17T21:44:06.667Z,31
2017-08-17T21:46:09.880Z,31
2017-08-17T21:48:09.130Z,31
2017-08-17T21:50:12.142Z,31
2017-08-17T21:52:11.925Z,31
2017-08-17T21:54:19.310Z,30
2017-08-17T21:56:07.469Z,31
2017-08-17T21:58:14.837Z,31
2017-08-17T22:00:11.779Z,31
2017-08-17T22:02:06.571Z,31
2017-08-17T22:04:12.427Z,31
2017-08-17T22:06:07.417Z,30
2017-08-17T22:08:07.157Z,31
2017-08-17T22:10:09.505Z,31
2017-08-17T22:12:09.826Z,31
2017-08-17T22:14:06.643Z,30
2017-08-17T22:16:07.434Z,31
2017-08-17T22:18:10.517Z,31
2017-08-17T22:20:17.566Z,30
2017-08-17T22:22:08.552Z,30
2017-08-17T22:24:07.375Z,31
2017-08-17T22:26:07.288Z,31
2017-08-17T22:28:09.634Z,31
2017-08-17T22:30:07.339Z,31
2017-08-17T22:32:07.239Z,31
2017-08-17T22:34:07.109Z,31
2017-08-17T22:36:09.521Z,30
2017-08-17T22:38:12.669Z,30
2017-08-17T22:40:07.554Z,30
2017-08-17T22:42:07.442Z,30
2017-08-17T22:44:07.262Z,31
2017-08-17T22:46:09.594Z,30
2017-08-17T22:48:09.966Z,30
2017-08-17T22:50:06.908Z,31
2017-08-17T22:52:06.649Z,31
2017-08-17T22:54:10.039Z,30
2017-08-17T22:56:09.306Z,30
2017-08-17T22:58:07.007Z,30
2017-08-17T23:00:09.415Z,30
2017-08-17T23:02:07.313Z,30
2017-08-17T23:04:07.118Z,31
2017-08-17T23:06:07.076Z,30
2017-08-17T23:08:09.394Z,30
2017-08-17T23:10:07.218Z,30
2017-08-17T23:12:06.913Z,30
2017-08-17T23:14:06.969Z,30
2017-08-17T23:16:06.702Z,31
2017-08-17T23:18:09.166Z,31
2017-08-17T23:20:09.370Z,30
2017-08-17T23:22:07.115Z,31
2017-08-17T23:24:06.852Z,31
2017-08-17T23:26:09.081Z,31
2017-08-17T23:28:09.320Z,31
2017-08-17T23:30:12.128Z,30
2017-08-17T23:32:06.969Z,30
2017-08-17T23:34:06.709Z,30
2017-08-17T23:36:11.549Z,30
2017-08-17T23:38:07.358Z,30
2017-08-17T23:40:07.034Z,30
2017-08-17T23:42:06.774Z,30
2017-08-17T23:44:06.499Z,30
2017-08-17T23:46:09.773Z,30
2017-08-17T23:48:06.556Z,30
2017-08-17T23:50:07.566Z,30
2017-08-17T23:52:07.463Z,30
2017-08-17T23:54:07.189Z,30
2017-08-17T23:56:06.905Z,30
2017-08-17T23:58:06.588Z,30
